sensor_id;sensor_type;location;lat;lon;timestamp;P1;durP1;ratioP1;P2;durP2;ratioP2
71570;SDS011;59407;42.682;23.322;2023-02-28T00:00:17;24.20;;;13.33;;
71570;SDS011;59407;42.682;23.322;2023-02-28T00:02:47;24.23;;;12.20;;
71570;SDS011;59407;42.682;23.322;2023-02-28T00:05:14;26.52;;;14.07;;
71570;SDS011;59407;42.682;23.322;2023-02-28T00:07:41;27.65;;;12.70;;
71570;SDS011;59407;42.682;23.322;2023-02-28T00:10:08;24.53;;;12.47;;
71570;SDS011;59407;42.682;23.322;2023-02-28T00:12:35;25.27;;;12.23;;
71570;SDS011;59407;42.682;23.322;2023-02-28T00:15:14;26.63;;;12.50;;
71570;SDS011;59407;42.682;23.322;2023-02-28T00:17:39;24.67;;;11.43;;
71570;SDS011;59407;42.682;23.322;2023-02-28T00:20:05;28.13;;;12.70;;
71570;SDS011;59407;42.682;23.322;2023-02-28T00:22:52;28.02;;;13.20;;
71570;SDS011;59407;42.682;23.322;2023-02-28T00:25:19;30.38;;;12.50;;
71570;SDS011;59407;42.682;23.322;2023-02-28T00:27:46;24.58;;;12.43;;
71570;SDS011;59407;42.682;23.322;2023-02-28T00:30:13;25.97;;;12.80;;
71570;SDS011;59407;42.682;23.322;2023-02-28T00:32:40;27.30;;;13.38;;
71570;SDS011;59407;42.682;23.322;2023-02-28T00:35:06;27.73;;;12.70;;
71570;SDS011;59407;42.682;23.322;2023-02-28T00:37:32;27.37;;;13.17;;
71570;SDS011;59407;42.682;23.322;2023-02-28T00:39:58;30.77;;;13.38;;
71570;SDS011;59407;42.682;23.322;2023-02-28T00:42:24;30.73;;;14.07;;
71570;SDS011;59407;42.682;23.322;2023-02-28T00:44:50;31.20;;;13.80;;
71570;SDS011;59407;42.682;23.322;2023-02-28T00:47:15;26.87;;;13.30;;
71570;SDS011;59407;42.682;23.322;2023-02-28T00:49:41;29.50;;;12.70;;
71570;SDS011;59407;42.682;23.322;2023-02-28T00:52:07;28.83;;;13.03;;
71570;SDS011;59407;42.682;23.322;2023-02-28T00:54:34;23.67;;;11.80;;
71570;SDS011;59407;42.682;23.322;2023-02-28T00:57:01;31.20;;;13.90;;
71570;SDS011;59407;42.682;23.322;2023-02-28T00:59:27;24.80;;;12.55;;
71570;SDS011;59407;42.682;23.322;2023-02-28T01:01:52;28.80;;;14.17;;
71570;SDS011;59407;42.682;23.322;2023-02-28T01:04:18;33.17;;;15.27;;
71570;SDS011;59407;42.682;23.322;2023-02-28T01:06:44;27.92;;;15.13;;
71570;SDS011;59407;42.682;23.322;2023-02-28T01:09:10;26.90;;;13.90;;
71570;SDS011;59407;42.682;23.322;2023-02-28T01:11:36;31.80;;;16.00;;
71570;SDS011;59407;42.682;23.322;2023-02-28T01:14:02;31.23;;;15.47;;
71570;SDS011;59407;42.682;23.322;2023-02-28T01:16:29;33.22;;;16.20;;
71570;SDS011;59407;42.682;23.322;2023-02-28T01:18:55;33.60;;;16.15;;
71570;SDS011;59407;42.682;23.322;2023-02-28T01:21:21;32.20;;;16.90;;
71570;SDS011;59407;42.682;23.322;2023-02-28T01:23:46;33.53;;;16.20;;
71570;SDS011;59407;42.682;23.322;2023-02-28T01:26:14;35.45;;;16.48;;
71570;SDS011;59407;42.682;23.322;2023-02-28T01:28:41;35.17;;;16.87;;
71570;SDS011;59407;42.682;23.322;2023-02-28T01:31:06;35.88;;;17.92;;
71570;SDS011;59407;42.682;23.322;2023-02-28T01:33:33;31.50;;;14.63;;
71570;SDS011;59407;42.682;23.322;2023-02-28T01:36:00;34.25;;;17.33;;
71570;SDS011;59407;42.682;23.322;2023-02-28T01:38:31;43.97;;;17.83;;
71570;SDS011;59407;42.682;23.322;2023-02-28T01:40:58;34.13;;;16.48;;
71570;SDS011;59407;42.682;23.322;2023-02-28T01:45:51;35.72;;;16.85;;
71570;SDS011;59407;42.682;23.322;2023-02-28T01:48:18;38.80;;;16.35;;
71570;SDS011;59407;42.682;23.322;2023-02-28T01:50:45;39.15;;;16.83;;
71570;SDS011;59407;42.682;23.322;2023-02-28T01:53:13;36.13;;;17.45;;
71570;SDS011;59407;42.682;23.322;2023-02-28T01:55:41;33.50;;;16.43;;
71570;SDS011;59407;42.682;23.322;2023-02-28T01:58:08;38.97;;;16.77;;
71570;SDS011;59407;42.682;23.322;2023-02-28T02:00:34;40.15;;;17.92;;
71570;SDS011;59407;42.682;23.322;2023-02-28T02:03:08;40.85;;;17.42;;
71570;SDS011;59407;42.682;23.322;2023-02-28T02:05:36;35.03;;;15.23;;
71570;SDS011;59407;42.682;23.322;2023-02-28T02:08:04;37.70;;;16.75;;
71570;SDS011;59407;42.682;23.322;2023-02-28T02:24:48;38.75;;;18.13;;
71570;SDS011;59407;42.682;23.322;2023-02-28T02:33:17;42.77;;;17.50;;
71570;SDS011;59407;42.682;23.322;2023-02-28T02:36:13;45.75;;;17.35;;
71570;SDS011;59407;42.682;23.322;2023-02-28T02:41:30;41.50;;;17.35;;
71570;SDS011;59407;42.682;23.322;2023-02-28T02:47:03;41.80;;;16.90;;
71570;SDS011;59407;42.682;23.322;2023-02-28T02:49:35;46.63;;;17.95;;
71570;SDS011;59407;42.682;23.322;2023-02-28T02:52:04;43.05;;;16.88;;
71570;SDS011;59407;42.682;23.322;2023-02-28T02:54:33;51.65;;;19.42;;
71570;SDS011;59407;42.682;23.322;2023-02-28T02:57:05;51.83;;;18.40;;
71570;SDS011;59407;42.682;23.322;2023-02-28T02:59:35;44.57;;;18.27;;
71570;SDS011;59407;42.682;23.322;2023-02-28T03:02:03;47.38;;;19.50;;
71570;SDS011;59407;42.682;23.322;2023-02-28T03:04:32;45.83;;;18.05;;
71570;SDS011;59407;42.682;23.322;2023-02-28T03:07:01;48.97;;;18.67;;
71570;SDS011;59407;42.682;23.322;2023-02-28T03:09:28;47.58;;;18.63;;
71570;SDS011;59407;42.682;23.322;2023-02-28T03:11:54;41.97;;;18.07;;
71570;SDS011;59407;42.682;23.322;2023-02-28T03:25:42;46.13;;;18.10;;
71570;SDS011;59407;42.682;23.322;2023-02-28T03:31:20;46.75;;;18.48;;
71570;SDS011;59407;42.682;23.322;2023-02-28T03:37:28;43.50;;;16.40;;
71570;SDS011;59407;42.682;23.322;2023-02-28T03:39:43;42.70;;;17.38;;
71570;SDS011;59407;42.682;23.322;2023-02-28T03:42:19;37.70;;;15.40;;
71570;SDS011;59407;42.682;23.322;2023-02-28T03:45:05;42.05;;;18.10;;
71570;SDS011;59407;42.682;23.322;2023-02-28T03:47:37;43.78;;;17.95;;
71570;SDS011;59407;42.682;23.322;2023-02-28T03:52:55;45.97;;;18.27;;
71570;SDS011;59407;42.682;23.322;2023-02-28T03:55:26;43.53;;;17.50;;
71570;SDS011;59407;42.682;23.322;2023-02-28T03:57:58;44.65;;;18.42;;
71570;SDS011;59407;42.682;23.322;2023-02-28T04:03:36;41.67;;;17.83;;
71570;SDS011;59407;42.682;23.322;2023-02-28T04:06:04;45.28;;;19.52;;
71570;SDS011;59407;42.682;23.322;2023-02-28T04:08:32;45.33;;;18.63;;
71570;SDS011;59407;42.682;23.322;2023-02-28T04:11:03;46.65;;;18.42;;
71570;SDS011;59407;42.682;23.322;2023-02-28T04:13:31;47.42;;;19.50;;
71570;SDS011;59407;42.682;23.322;2023-02-28T04:15:57;42.77;;;18.40;;
71570;SDS011;59407;42.682;23.322;2023-02-28T04:18:25;49.40;;;21.13;;
71570;SDS011;59407;42.682;23.322;2023-02-28T04:20:50;51.23;;;20.17;;
71570;SDS011;59407;42.682;23.322;2023-02-28T04:23:16;49.25;;;20.30;;
71570;SDS011;59407;42.682;23.322;2023-02-28T04:25:43;54.30;;;21.40;;
71570;SDS011;59407;42.682;23.322;2023-02-28T04:28:09;51.40;;;19.30;;
71570;SDS011;59407;42.682;23.322;2023-02-28T04:30:34;47.37;;;20.33;;
71570;SDS011;59407;42.682;23.322;2023-02-28T04:33:10;52.60;;;20.33;;
71570;SDS011;59407;42.682;23.322;2023-02-28T04:35:41;45.97;;;18.52;;
71570;SDS011;59407;42.682;23.322;2023-02-28T04:38:08;46.88;;;18.40;;
71570;SDS011;59407;42.682;23.322;2023-02-28T04:40:33;48.83;;;17.53;;
71570;SDS011;59407;42.682;23.322;2023-02-28T04:43:00;38.33;;;16.38;;
71570;SDS011;59407;42.682;23.322;2023-02-28T04:45:25;39.57;;;17.30;;
71570;SDS011;59407;42.682;23.322;2023-02-28T04:47:55;39.33;;;16.50;;
71570;SDS011;59407;42.682;23.322;2023-02-28T04:50:20;43.88;;;16.17;;
71570;SDS011;59407;42.682;23.322;2023-02-28T04:52:47;40.27;;;18.70;;
71570;SDS011;59407;42.682;23.322;2023-02-28T04:55:13;41.55;;;16.30;;
71570;SDS011;59407;42.682;23.322;2023-02-28T04:57:39;42.97;;;17.37;;
71570;SDS011;59407;42.682;23.322;2023-02-28T05:00:07;50.53;;;18.52;;
71570;SDS011;59407;42.682;23.322;2023-02-28T05:02:36;54.42;;;21.15;;
71570;SDS011;59407;42.682;23.322;2023-02-28T05:05:02;56.13;;;22.90;;
71570;SDS011;59407;42.682;23.322;2023-02-28T05:07:28;58.80;;;20.45;;
71570;SDS011;59407;42.682;23.322;2023-02-28T05:09:55;56.60;;;22.30;;
71570;SDS011;59407;42.682;23.322;2023-02-28T05:12:21;49.00;;;19.60;;
71570;SDS011;59407;42.682;23.322;2023-02-28T05:14:48;48.22;;;19.08;;
71570;SDS011;59407;42.682;23.322;2023-02-28T05:17:14;52.55;;;21.25;;
71570;SDS011;59407;42.682;23.322;2023-02-28T05:19:42;48.60;;;19.63;;
71570;SDS011;59407;42.682;23.322;2023-02-28T05:22:12;50.28;;;19.60;;
71570;SDS011;59407;42.682;23.322;2023-02-28T05:24:40;47.42;;;20.95;;
71570;SDS011;59407;42.682;23.322;2023-02-28T05:27:07;51.80;;;21.83;;
71570;SDS011;59407;42.682;23.322;2023-02-28T05:29:33;52.20;;;19.53;;
71570;SDS011;59407;42.682;23.322;2023-02-28T05:31:59;58.60;;;20.45;;
71570;SDS011;59407;42.682;23.322;2023-02-28T05:34:24;50.80;;;20.08;;
71570;SDS011;59407;42.682;23.322;2023-02-28T05:36:50;52.10;;;22.43;;
71570;SDS011;59407;42.682;23.322;2023-02-28T05:39:15;53.47;;;20.67;;
71570;SDS011;59407;42.682;23.322;2023-02-28T05:41:41;47.13;;;18.67;;
71570;SDS011;59407;42.682;23.322;2023-02-28T05:44:08;51.28;;;20.42;;
71570;SDS011;59407;42.682;23.322;2023-02-28T05:46:34;45.58;;;19.83;;
71570;SDS011;59407;42.682;23.322;2023-02-28T05:48:59;49.17;;;19.40;;
71570;SDS011;59407;42.682;23.322;2023-02-28T05:51:26;44.08;;;18.48;;
71570;SDS011;59407;42.682;23.322;2023-02-28T05:53:53;46.17;;;19.17;;
71570;SDS011;59407;42.682;23.322;2023-02-28T05:56:19;49.30;;;19.38;;
71570;SDS011;59407;42.682;23.322;2023-02-28T05:58:44;50.58;;;21.40;;
71570;SDS011;59407;42.682;23.322;2023-02-28T06:04:07;47.07;;;20.33;;
71570;SDS011;59407;42.682;23.322;2023-02-28T06:06:34;47.35;;;18.77;;
71570;SDS011;59407;42.682;23.322;2023-02-28T06:09:01;50.10;;;20.15;;
71570;SDS011;59407;42.682;23.322;2023-02-28T06:11:26;47.35;;;20.70;;
71570;SDS011;59407;42.682;23.322;2023-02-28T06:13:53;40.58;;;19.05;;
71570;SDS011;59407;42.682;23.322;2023-02-28T06:16:20;42.10;;;19.23;;
71570;SDS011;59407;42.682;23.322;2023-02-28T06:18:46;46.72;;;21.60;;
71570;SDS011;59407;42.682;23.322;2023-02-28T06:21:12;39.27;;;18.33;;
71570;SDS011;59407;42.682;23.322;2023-02-28T06:23:38;42.88;;;18.48;;
71570;SDS011;59407;42.682;23.322;2023-02-28T06:26:03;41.67;;;18.13;;
71570;SDS011;59407;42.682;23.322;2023-02-28T06:28:29;43.38;;;20.30;;
71570;SDS011;59407;42.682;23.322;2023-02-28T06:30:55;45.90;;;21.17;;
71570;SDS011;59407;42.682;23.322;2023-02-28T06:33:20;48.17;;;20.58;;
71570;SDS011;59407;42.682;23.322;2023-02-28T06:35:49;51.80;;;21.13;;
71570;SDS011;59407;42.682;23.322;2023-02-28T06:38:35;44.42;;;19.85;;
71570;SDS011;59407;42.682;23.322;2023-02-28T06:41:01;46.50;;;20.35;;
71570;SDS011;59407;42.682;23.322;2023-02-28T06:43:30;41.40;;;20.38;;
71570;SDS011;59407;42.682;23.322;2023-02-28T06:46:07;41.88;;;21.65;;
71570;SDS011;59407;42.682;23.322;2023-02-28T06:48:34;51.40;;;22.53;;
71570;SDS011;59407;42.682;23.322;2023-02-28T06:51:01;42.25;;;20.55;;
71570;SDS011;59407;42.682;23.322;2023-02-28T06:53:33;43.88;;;21.48;;
71570;SDS011;59407;42.682;23.322;2023-02-28T06:56:05;47.20;;;19.85;;
71570;SDS011;59407;42.682;23.322;2023-02-28T06:58:32;41.67;;;19.48;;
71570;SDS011;59407;42.682;23.322;2023-02-28T07:01:18;42.33;;;18.77;;
71570;SDS011;59407;42.682;23.322;2023-02-28T07:03:58;38.05;;;17.85;;
71570;SDS011;59407;42.682;23.322;2023-02-28T07:06:25;44.88;;;18.77;;
71570;SDS011;59407;42.682;23.322;2023-02-28T07:08:54;45.20;;;21.30;;
71570;SDS011;59407;42.682;23.322;2023-02-28T07:11:20;41.05;;;19.77;;
71570;SDS011;59407;42.682;23.322;2023-02-28T07:13:55;45.57;;;21.23;;
71570;SDS011;59407;42.682;23.322;2023-02-28T07:16:25;45.47;;;20.58;;
71570;SDS011;59407;42.682;23.322;2023-02-28T07:18:55;46.08;;;20.58;;
71570;SDS011;59407;42.682;23.322;2023-02-28T07:21:22;44.95;;;21.00;;
71570;SDS011;59407;42.682;23.322;2023-02-28T07:23:48;38.50;;;18.92;;
71570;SDS011;59407;42.682;23.322;2023-02-28T07:26:16;43.20;;;19.03;;
71570;SDS011;59407;42.682;23.322;2023-02-28T07:28:42;42.60;;;19.65;;
71570;SDS011;59407;42.682;23.322;2023-02-28T07:31:12;33.97;;;17.33;;
71570;SDS011;59407;42.682;23.322;2023-02-28T07:33:39;33.40;;;18.37;;
71570;SDS011;59407;42.682;23.322;2023-02-28T07:36:09;34.45;;;16.48;;
71570;SDS011;59407;42.682;23.322;2023-02-28T07:38:40;35.55;;;16.85;;
71570;SDS011;59407;42.682;23.322;2023-02-28T07:41:08;33.10;;;16.92;;
71570;SDS011;59407;42.682;23.322;2023-02-28T07:43:34;37.25;;;17.40;;
71570;SDS011;59407;42.682;23.322;2023-02-28T07:46:03;35.37;;;18.23;;
71570;SDS011;59407;42.682;23.322;2023-02-28T07:48:31;33.42;;;16.90;;
71570;SDS011;59407;42.682;23.322;2023-02-28T07:50:58;35.67;;;18.98;;
71570;SDS011;59407;42.682;23.322;2023-02-28T07:53:24;34.47;;;18.40;;
71570;SDS011;59407;42.682;23.322;2023-02-28T07:55:57;33.85;;;17.45;;
71570;SDS011;59407;42.682;23.322;2023-02-28T07:58:24;39.67;;;18.77;;
71570;SDS011;59407;42.682;23.322;2023-02-28T08:00:50;38.95;;;17.95;;
71570;SDS011;59407;42.682;23.322;2023-02-28T08:03:24;35.42;;;17.02;;
71570;SDS011;59407;42.682;23.322;2023-02-28T08:05:52;33.42;;;16.95;;
71570;SDS011;59407;42.682;23.322;2023-02-28T08:08:19;35.42;;;16.38;;
71570;SDS011;59407;42.682;23.322;2023-02-28T08:11:00;36.13;;;18.80;;
71570;SDS011;59407;42.682;23.322;2023-02-28T08:13:28;35.67;;;18.98;;
71570;SDS011;59407;42.682;23.322;2023-02-28T08:15:55;32.08;;;17.30;;
71570;SDS011;59407;42.682;23.322;2023-02-28T08:18:25;32.47;;;16.63;;
71570;SDS011;59407;42.682;23.322;2023-02-28T08:20:53;32.75;;;17.77;;
71570;SDS011;59407;42.682;23.322;2023-02-28T08:23:20;38.03;;;17.23;;
71570;SDS011;59407;42.682;23.322;2023-02-28T08:25:52;32.20;;;16.90;;
71570;SDS011;59407;42.682;23.322;2023-02-28T08:28:39;30.23;;;16.35;;
71570;SDS011;59407;42.682;23.322;2023-02-28T08:31:09;34.88;;;17.55;;
71570;SDS011;59407;42.682;23.322;2023-02-28T08:33:38;34.87;;;18.53;;
71570;SDS011;59407;42.682;23.322;2023-02-28T08:36:04;33.55;;;18.23;;
71570;SDS011;59407;42.682;23.322;2023-02-28T08:39:02;32.20;;;16.77;;
71570;SDS011;59407;42.682;23.322;2023-02-28T08:41:30;36.53;;;19.05;;
71570;SDS011;59407;42.682;23.322;2023-02-28T08:44:07;37.55;;;20.27;;
71570;SDS011;59407;42.682;23.322;2023-02-28T08:46:34;37.00;;;20.37;;
71570;SDS011;59407;42.682;23.322;2023-02-28T08:49:00;35.70;;;19.88;;
71570;SDS011;59407;42.682;23.322;2023-02-28T08:51:28;30.50;;;17.15;;
71570;SDS011;59407;42.682;23.322;2023-02-28T08:54:00;33.58;;;17.95;;
71570;SDS011;59407;42.682;23.322;2023-02-28T08:56:49;36.15;;;19.27;;
71570;SDS011;59407;42.682;23.322;2023-02-28T08:59:15;40.63;;;17.47;;
71570;SDS011;59407;42.682;23.322;2023-02-28T09:01:50;33.70;;;17.17;;
71570;SDS011;59407;42.682;23.322;2023-02-28T09:04:16;37.63;;;18.35;;
71570;SDS011;59407;42.682;23.322;2023-02-28T09:06:43;35.47;;;17.58;;
71570;SDS011;59407;42.682;23.322;2023-02-28T09:09:09;41.78;;;19.70;;
71570;SDS011;59407;42.682;23.322;2023-02-28T09:11:36;34.47;;;18.57;;
71570;SDS011;59407;42.682;23.322;2023-02-28T09:14:06;36.47;;;17.73;;
71570;SDS011;59407;42.682;23.322;2023-02-28T09:16:36;37.38;;;18.27;;
71570;SDS011;59407;42.682;23.322;2023-02-28T09:19:02;50.73;;;21.70;;
71570;SDS011;59407;42.682;23.322;2023-02-28T09:21:27;43.15;;;23.58;;
71570;SDS011;59407;42.682;23.322;2023-02-28T09:23:53;47.47;;;23.77;;
71570;SDS011;59407;42.682;23.322;2023-02-28T09:26:23;56.88;;;25.23;;
71570;SDS011;59407;42.682;23.322;2023-02-28T09:28:51;48.75;;;23.50;;
71570;SDS011;59407;42.682;23.322;2023-02-28T09:31:22;53.67;;;25.30;;
71570;SDS011;59407;42.682;23.322;2023-02-28T09:33:50;54.80;;;25.70;;
71570;SDS011;59407;42.682;23.322;2023-02-28T09:36:28;64.05;;;29.02;;
71570;SDS011;59407;42.682;23.322;2023-02-28T09:38:54;50.00;;;24.77;;
71570;SDS011;59407;42.682;23.322;2023-02-28T09:41:25;54.60;;;25.25;;
71570;SDS011;59407;42.682;23.322;2023-02-28T09:43:56;48.00;;;25.27;;
71570;SDS011;59407;42.682;23.322;2023-02-28T09:46:29;58.10;;;26.27;;
71570;SDS011;59407;42.682;23.322;2023-02-28T09:48:57;61.20;;;26.90;;
71570;SDS011;59407;42.682;23.322;2023-02-28T09:54:18;58.42;;;27.85;;
71570;SDS011;59407;42.682;23.322;2023-02-28T09:56:49;43.78;;;22.48;;
71570;SDS011;59407;42.682;23.322;2023-02-28T10:08:38;24.90;;;11.02;;
71570;SDS011;59407;42.682;23.322;2023-02-28T10:11:11;19.27;;;10.30;;
71570;SDS011;59407;42.682;23.322;2023-02-28T10:13:59;22.73;;;9.90;;
71570;SDS011;59407;42.682;23.322;2023-02-28T10:24:53;21.75;;;9.82;;
71570;SDS011;59407;42.682;23.322;2023-02-28T10:27:22;21.63;;;12.17;;
71570;SDS011;59407;42.682;23.322;2023-02-28T10:29:53;20.13;;;10.20;;
71570;SDS011;59407;42.682;23.322;2023-02-28T10:32:20;20.33;;;9.10;;
71570;SDS011;59407;42.682;23.322;2023-02-28T10:37:47;21.92;;;9.30;;
71570;SDS011;59407;42.682;23.322;2023-02-28T10:45:38;21.48;;;8.57;;
71570;SDS011;59407;42.682;23.322;2023-02-28T10:48:05;31.17;;;12.88;;
71570;SDS011;59407;42.682;23.322;2023-02-28T11:04:16;18.30;;;9.25;;
71570;SDS011;59407;42.682;23.322;2023-02-28T11:06:46;23.30;;;9.97;;
71570;SDS011;59407;42.682;23.322;2023-02-28T11:09:23;19.73;;;9.20;;
71570;SDS011;59407;42.682;23.322;2023-02-28T11:11:54;22.52;;;9.52;;
71570;SDS011;59407;42.682;23.322;2023-02-28T11:14:21;20.13;;;9.27;;
71570;SDS011;59407;42.682;23.322;2023-02-28T11:16:53;27.90;;;9.13;;
71570;SDS011;59407;42.682;23.322;2023-02-28T11:19:20;21.73;;;9.15;;
71570;SDS011;59407;42.682;23.322;2023-02-28T11:22:07;19.42;;;9.65;;
71570;SDS011;59407;42.682;23.322;2023-02-28T11:24:37;25.88;;;11.32;;
71570;SDS011;59407;42.682;23.322;2023-02-28T11:30:34;24.43;;;9.97;;
71570;SDS011;59407;42.682;23.322;2023-02-28T11:36:00;21.33;;;9.23;;
71570;SDS011;59407;42.682;23.322;2023-02-28T11:38:29;20.55;;;9.82;;
71570;SDS011;59407;42.682;23.322;2023-02-28T11:43:50;22.43;;;9.03;;
71570;SDS011;59407;42.682;23.322;2023-02-28T11:46:31;19.25;;;8.55;;
71570;SDS011;59407;42.682;23.322;2023-02-28T11:49:10;27.23;;;11.93;;
71570;SDS011;59407;42.682;23.322;2023-02-28T11:55:23;18.05;;;9.45;;
71570;SDS011;59407;42.682;23.322;2023-02-28T12:01:06;22.23;;;9.60;;
71570;SDS011;59407;42.682;23.322;2023-02-28T12:09:45;22.60;;;10.27;;
71570;SDS011;59407;42.682;23.322;2023-02-28T12:27:55;23.60;;;9.10;;
71570;SDS011;59407;42.682;23.322;2023-02-28T12:30:28;22.98;;;9.45;;
71570;SDS011;59407;42.682;23.322;2023-02-28T12:33:18;17.50;;;9.00;;
71570;SDS011;59407;42.682;23.322;2023-02-28T12:35:48;20.90;;;9.70;;
71570;SDS011;59407;42.682;23.322;2023-02-28T12:38:34;19.02;;;9.27;;
71570;SDS011;59407;42.682;23.322;2023-02-28T12:41:22;22.00;;;9.60;;
71570;SDS011;59407;42.682;23.322;2023-02-28T12:43:55;19.05;;;9.77;;
71570;SDS011;59407;42.682;23.322;2023-02-28T12:46:29;21.30;;;8.98;;
71570;SDS011;59407;42.682;23.322;2023-02-28T12:48:59;22.13;;;9.60;;
71570;SDS011;59407;42.682;23.322;2023-02-28T12:51:34;22.35;;;9.80;;
71570;SDS011;59407;42.682;23.322;2023-02-28T12:56:50;19.92;;;8.85;;
71570;SDS011;59407;42.682;23.322;2023-02-28T13:02:24;20.08;;;8.77;;
71570;SDS011;59407;42.682;23.322;2023-02-28T13:14:34;20.42;;;8.40;;
71570;SDS011;59407;42.682;23.322;2023-02-28T13:19:45;23.35;;;9.55;;
71570;SDS011;59407;42.682;23.322;2023-02-28T13:25:49;19.00;;;8.63;;
71570;SDS011;59407;42.682;23.322;2023-02-28T13:27:59;17.63;;;8.20;;
71570;SDS011;59407;42.682;23.322;2023-02-28T13:39:43;22.00;;;8.93;;
71570;SDS011;59407;42.682;23.322;2023-02-28T13:45:30;20.23;;;9.55;;
71570;SDS011;59407;42.682;23.322;2023-02-28T13:47:38;18.00;;;7.35;;
71570;SDS011;59407;42.682;23.322;2023-02-28T13:50:19;20.70;;;7.90;;
71570;SDS011;59407;42.682;23.322;2023-02-28T13:58:24;17.17;;;8.18;;
71570;SDS011;59407;42.682;23.322;2023-02-28T14:06:55;19.60;;;8.77;;
71570;SDS011;59407;42.682;23.322;2023-02-28T14:09:25;15.50;;;7.47;;
71570;SDS011;59407;42.682;23.322;2023-02-28T14:11:53;17.63;;;7.85;;
71570;SDS011;59407;42.682;23.322;2023-02-28T14:17:22;18.25;;;8.10;;
71570;SDS011;59407;42.682;23.322;2023-02-28T14:19:51;17.25;;;7.72;;
71570;SDS011;59407;42.682;23.322;2023-02-28T14:30:59;20.00;;;8.23;;
71570;SDS011;59407;42.682;23.322;2023-02-28T14:41:30;18.45;;;9.10;;
71570;SDS011;59407;42.682;23.322;2023-02-28T14:43:57;18.70;;;8.57;;
71570;SDS011;59407;42.682;23.322;2023-02-28T14:46:26;20.35;;;8.50;;
71570;SDS011;59407;42.682;23.322;2023-02-28T14:49:00;17.45;;;8.27;;
71570;SDS011;59407;42.682;23.322;2023-02-28T14:51:27;21.27;;;8.07;;
71570;SDS011;59407;42.682;23.322;2023-02-28T14:54:00;18.48;;;8.48;;
71570;SDS011;59407;42.682;23.322;2023-02-28T14:56:36;21.30;;;8.65;;
71570;SDS011;59407;42.682;23.322;2023-02-28T14:59:05;16.80;;;7.30;;
71570;SDS011;59407;42.682;23.322;2023-02-28T15:01:42;21.05;;;7.70;;
71570;SDS011;59407;42.682;23.322;2023-02-28T15:04:15;18.42;;;7.45;;
71570;SDS011;59407;42.682;23.322;2023-02-28T15:06:46;18.90;;;7.72;;
71570;SDS011;59407;42.682;23.322;2023-02-28T15:09:16;17.47;;;7.87;;
71570;SDS011;59407;42.682;23.322;2023-02-28T15:11:45;23.00;;;8.23;;
71570;SDS011;59407;42.682;23.322;2023-02-28T15:14:14;18.80;;;8.07;;
71570;SDS011;59407;42.682;23.322;2023-02-28T15:17:06;16.35;;;6.90;;
71570;SDS011;59407;42.682;23.322;2023-02-28T15:19:34;17.60;;;8.32;;
71570;SDS011;59407;42.682;23.322;2023-02-28T15:22:03;19.43;;;7.20;;
71570;SDS011;59407;42.682;23.322;2023-02-28T15:24:39;22.52;;;7.93;;
71570;SDS011;59407;42.682;23.322;2023-02-28T15:27:29;17.33;;;7.15;;
71570;SDS011;59407;42.682;23.322;2023-02-28T15:29:57;14.85;;;7.35;;
71570;SDS011;59407;42.682;23.322;2023-02-28T15:32:35;22.20;;;7.43;;
71570;SDS011;59407;42.682;23.322;2023-02-28T15:37:54;16.65;;;7.40;;
71570;SDS011;59407;42.682;23.322;2023-02-28T15:40:31;14.85;;;7.07;;
71570;SDS011;59407;42.682;23.322;2023-02-28T15:43:37;19.90;;;8.18;;
71570;SDS011;59407;42.682;23.322;2023-02-28T15:48:29;12.90;;;6.30;;
71570;SDS011;59407;42.682;23.322;2023-02-28T15:51:07;15.55;;;6.70;;
71570;SDS011;59407;42.682;23.322;2023-02-28T15:54:07;15.43;;;8.00;;
71570;SDS011;59407;42.682;23.322;2023-02-28T15:56:31;16.45;;;7.85;;
71570;SDS011;59407;42.682;23.322;2023-02-28T15:59:00;15.95;;;7.72;;
71570;SDS011;59407;42.682;23.322;2023-02-28T16:01:32;13.37;;;6.67;;
71570;SDS011;59407;42.682;23.322;2023-02-28T16:04:17;13.27;;;6.80;;
71570;SDS011;59407;42.682;23.322;2023-02-28T16:09:24;15.60;;;8.23;;
71570;SDS011;59407;42.682;23.322;2023-02-28T16:11:50;15.47;;;8.27;;
71570;SDS011;59407;42.682;23.322;2023-02-28T16:14:20;13.45;;;8.07;;
71570;SDS011;59407;42.682;23.322;2023-02-28T16:16:53;15.02;;;7.43;;
71570;SDS011;59407;42.682;23.322;2023-02-28T16:19:20;14.85;;;7.65;;
71570;SDS011;59407;42.682;23.322;2023-02-28T16:21:51;13.77;;;7.37;;
71570;SDS011;59407;42.682;23.322;2023-02-28T16:24:16;12.98;;;6.43;;
71570;SDS011;59407;42.682;23.322;2023-02-28T16:26:44;15.02;;;8.55;;
71570;SDS011;59407;42.682;23.322;2023-02-28T16:29:19;14.55;;;7.38;;
71570;SDS011;59407;42.682;23.322;2023-02-28T16:31:49;14.63;;;7.00;;
71570;SDS011;59407;42.682;23.322;2023-02-28T16:34:19;12.40;;;6.07;;
71570;SDS011;59407;42.682;23.322;2023-02-28T16:36:48;18.83;;;7.60;;
71570;SDS011;59407;42.682;23.322;2023-02-28T16:39:14;16.40;;;9.20;;
71570;SDS011;59407;42.682;23.322;2023-02-28T16:41:44;21.05;;;9.30;;
71570;SDS011;59407;42.682;23.322;2023-02-28T16:44:33;15.77;;;8.17;;
71570;SDS011;59407;42.682;23.322;2023-02-28T16:46:59;11.82;;;6.78;;
71570;SDS011;59407;42.682;23.322;2023-02-28T16:49:25;9.93;;;6.03;;
71570;SDS011;59407;42.682;23.322;2023-02-28T16:51:51;10.45;;;6.18;;
71570;SDS011;59407;42.682;23.322;2023-02-28T16:54:20;12.85;;;6.70;;
71570;SDS011;59407;42.682;23.322;2023-02-28T16:56:49;11.17;;;6.27;;
71570;SDS011;59407;42.682;23.322;2023-02-28T16:59:19;11.15;;;6.95;;
71570;SDS011;59407;42.682;23.322;2023-02-28T17:01:57;11.38;;;6.18;;
71570;SDS011;59407;42.682;23.322;2023-02-28T17:04:23;11.00;;;6.03;;
71570;SDS011;59407;42.682;23.322;2023-02-28T17:06:51;10.48;;;5.45;;
71570;SDS011;59407;42.682;23.322;2023-02-28T17:09:25;11.55;;;6.22;;
71570;SDS011;59407;42.682;23.322;2023-02-28T17:11:52;12.45;;;5.75;;
71570;SDS011;59407;42.682;23.322;2023-02-28T17:14:23;14.00;;;8.00;;
71570;SDS011;59407;42.682;23.322;2023-02-28T17:16:48;11.67;;;5.53;;
71570;SDS011;59407;42.682;23.322;2023-02-28T17:19:15;10.70;;;5.30;;
71570;SDS011;59407;42.682;23.322;2023-02-28T17:21:48;11.87;;;5.47;;
71570;SDS011;59407;42.682;23.322;2023-02-28T17:24:13;10.32;;;5.40;;
71570;SDS011;59407;42.682;23.322;2023-02-28T17:26:39;8.40;;;5.00;;
71570;SDS011;59407;42.682;23.322;2023-02-28T17:29:26;10.13;;;4.95;;
71570;SDS011;59407;42.682;23.322;2023-02-28T17:31:57;9.73;;;4.65;;
71570;SDS011;59407;42.682;23.322;2023-02-28T17:34:22;10.73;;;4.23;;
71570;SDS011;59407;42.682;23.322;2023-02-28T17:36:50;6.60;;;4.60;;
71570;SDS011;59407;42.682;23.322;2023-02-28T17:39:17;9.02;;;5.00;;
71570;SDS011;59407;42.682;23.322;2023-02-28T17:41:49;7.65;;;4.25;;
71570;SDS011;59407;42.682;23.322;2023-02-28T17:44:20;9.87;;;4.53;;
71570;SDS011;59407;42.682;23.322;2023-02-28T17:46:46;9.25;;;4.25;;
71570;SDS011;59407;42.682;23.322;2023-02-28T17:49:12;7.82;;;4.55;;
71570;SDS011;59407;42.682;23.322;2023-02-28T17:51:37;9.20;;;4.97;;
71570;SDS011;59407;42.682;23.322;2023-02-28T17:54:03;14.80;;;5.53;;
71570;SDS011;59407;42.682;23.322;2023-02-28T17:56:29;20.13;;;9.43;;